Time;durP1;ratioP1;P1;durP2;ratioP2;P2;SDS_P1;SDS_P2;PMS_P1;PMS_P2;Temp;Humidity;BMP_temperature;BMP_pressure;BME280_temperature;BME280_humidity;BME280_pressure;Samples;Min_cycle;Max_cycle;Signal;HPM_P1;HPM_P2
2021/01/23 00:00:04;;;;;;;6.60;3.10;;;;;;;2.21;99.80;98991.56;4996844;28;20569;-71
2021/01/23 00:02:37;;;;;;;7.90;3.87;;;;;;;2.21;99.92;98994.13;5005184;28;20283;-72
2021/01/23 00:05:05;;;;;;;7.90;4.40;;;;;;;2.21;100.00;98990.72;5004141;28;20196;-71
2021/01/23 00:07:31;;;;;;;6.50;4.07;;;;;;;2.19;100.00;98992.47;5003207;28;20208;-71
2021/01/23 00:09:57;;;;;;;5.77;3.93;;;;;;;2.18;99.91;98995.91;4999080;28;20229;-72
2021/01/23 00:12:23;;;;;;;5.20;3.63;;;;;;;2.14;99.98;98987.41;4998808;28;20215;-71
2021/01/23 00:14:49;;;;;;;5.43;3.80;;;;;;;2.13;100.00;98993.44;5003944;28;20224;-71
2021/01/23 00:17:15;;;;;;;5.60;3.50;;;;;;;2.13;99.96;98996.00;5001248;28;20203;-72
2021/01/23 00:19:40;;;;;;;4.90;3.30;;;;;;;2.13;99.98;98997.69;5003464;28;20232;-72
2021/01/23 00:22:07;;;;;;;5.90;4.00;;;;;;;2.14;99.89;98999.41;4999452;28;20598;-72
2021/01/23 00:24:33;;;;;;;6.70;3.70;;;;;;;2.14;99.83;99000.25;5003117;28;20215;-71
2021/01/23 00:26:59;;;;;;;6.33;3.43;;;;;;;2.12;99.60;98989.16;5002344;28;20229;-71
2021/01/23 00:29:25;;;;;;;5.27;3.87;;;;;;;2.11;99.53;98982.34;5000651;28;20217;-72
2021/01/23 00:31:51;;;;;;;3.53;2.77;;;;;;;2.11;99.40;98982.34;5003690;28;20196;-71
2021/01/23 00:34:16;;;;;;;6.17;2.90;;;;;;;2.12;99.78;98985.75;5005532;28;20213;-71
2021/01/23 00:36:42;;;;;;;4.23;3.00;;;;;;;2.13;99.89;98984.84;5005864;28;20263;-72
2021/01/23 00:39:09;;;;;;;3.70;2.60;;;;;;;2.14;99.70;98982.25;5005005;28;20246;-71
2021/01/23 00:41:35;;;;;;;3.80;2.80;;;;;;;2.15;100.00;98976.25;5006654;28;20255;-71
2021/01/23 00:44:05;;;;;;;3.23;2.50;;;;;;;2.17;99.74;98981.38;5002669;28;20901;-72
2021/01/23 00:46:31;;;;;;;5.37;2.97;;;;;;;2.18;99.57;98973.63;5006158;28;20754;-72
2021/01/23 00:48:57;;;;;;;12.87;6.53;;;;;;;2.20;99.71;98976.13;5004809;28;20200;-72
2021/01/23 00:51:23;;;;;;;27.37;12.70;;;;;;;2.20;99.39;98977.00;5005013;28;20200;-71
2021/01/23 00:53:49;;;;;;;21.10;11.13;;;;;;;2.21;99.70;98975.28;5005707;28;20204;-71
2021/01/23 00:56:16;;;;;;;9.07;5.87;;;;;;;2.21;99.01;98980.41;5005090;28;20731;-71
2021/01/23 00:58:42;;;;;;;5.27;3.20;;;;;;;2.22;99.38;98977.00;5004906;28;20208;-71
2021/01/23 01:01:09;;;;;;;3.73;3.07;;;;;;;2.23;98.94;98979.53;5009333;28;20320;-72
2021/01/23 01:03:35;;;;;;;6.27;3.33;;;;;;;2.25;99.00;98982.06;5005372;28;20208;-72
2021/01/23 01:06:05;;;;;;;32.10;14.47;;;;;;;2.26;98.43;98979.47;5020011;28;20204;-71
2021/01/23 01:08:31;;;;;;;23.60;11.40;;;;;;;2.30;98.04;98987.97;5006902;28;20200;-72
2021/01/23 01:10:57;;;;;;;10.23;5.83;;;;;;;2.32;98.14;98996.50;5007645;28;20254;-72
2021/01/23 01:13:24;;;;;;;5.20;3.33;;;;;;;2.32;97.86;98998.22;5004865;28;20232;-71
2021/01/23 01:15:50;;;;;;;8.33;4.97;;;;;;;2.32;97.79;99006.78;5005533;28;20203;-72
2021/01/23 01:18:16;;;;;;;13.90;7.80;;;;;;;2.35;97.22;99008.47;5005212;28;20890;-71
2021/01/23 01:20:42;;;;;;;7.73;4.90;;;;;;;2.36;97.10;99007.59;5005715;28;20225;-72
2021/01/23 01:23:08;;;;;;;22.73;11.30;;;;;;;2.36;96.82;99005.88;4998294;28;20197;-72
2021/01/23 01:25:34;;;;;;;8.53;6.07;;;;;;;2.37;96.54;99012.69;5004955;28;20208;-71
2021/01/23 01:28:00;;;;;;;3.33;2.43;;;;;;;2.37;96.39;99006.72;5006035;28;20599;-71
2021/01/23 01:30:27;;;;;;;2.63;1.90;;;;;;;2.37;96.11;99010.13;5002198;28;20621;-71
2021/01/23 01:32:52;;;;;;;3.03;2.17;;;;;;;2.37;96.40;99017.84;5005769;28;20752;-72
2021/01/23 01:35:18;;;;;;;2.30;1.77;;;;;;;2.37;96.11;99011.84;5003285;28;20243;-72
2021/01/23 01:37:44;;;;;;;2.70;1.77;;;;;;;2.37;95.90;99002.41;5006911;28;20208;-72
2021/01/23 01:40:11;;;;;;;2.93;1.93;;;;;;;2.37;96.18;98993.84;5002447;28;20245;-70
2021/01/23 01:42:37;;;;;;;2.73;2.03;;;;;;;2.34;96.34;98997.34;5004650;28;20208;-71
2021/01/23 01:45:04;;;;;;;3.13;1.80;;;;;;;2.34;96.82;98997.34;5001052;28;20198;-70
2021/01/23 01:47:31;;;;;;;4.53;2.17;;;;;;;2.32;96.74;98999.06;5005975;28;20493;-70
2021/01/23 01:49:57;;;;;;;3.13;1.93;;;;;;;2.29;96.94;98994.00;5001890;28;20219;-70
2021/01/23 01:52:23;;;;;;;4.30;2.47;;;;;;;2.26;97.27;98989.75;5002417;28;20680;-71
2021/01/23 01:54:50;;;;;;;2.93;2.20;;;;;;;2.24;97.66;98985.53;5004727;28;20212;-71
2021/01/23 01:57:19;;;;;;;4.53;2.53;;;;;;;2.24;97.68;98985.53;5006399;28;20209;-71
2021/01/23 01:59:45;;;;;;;2.70;2.30;;;;;;;2.22;97.64;98982.97;5004301;28;20227;-70
2021/01/23 02:02:23;;;;;;;2.73;2.40;;;;;;;2.21;97.73;98986.41;4999629;28;20205;-70
2021/01/23 02:04:57;;;;;;;3.33;2.50;;;;;;;2.20;97.63;98986.44;5003417;28;20388;-70
2021/01/23 02:07:35;;;;;;;3.57;2.17;;;;;;;2.18;97.73;98986.50;5002813;28;20204;-71
2021/01/23 02:10:32;;;;;;;3.30;2.47;;;;;;;2.18;97.59;98983.03;5021310;28;20225;-71
2021/01/23 02:13:09;;;;;;;4.47;2.13;;;;;;;2.16;97.52;98987.38;5002877;28;20735;-71
2021/01/23 02:15:40;;;;;;;4.40;2.03;;;;;;;2.13;97.78;98983.16;5004897;28;20263;-70
2021/01/23 02:18:09;;;;;;;3.00;1.93;;;;;;;2.13;97.91;98984.84;5000631;28;20217;-70
2021/01/23 02:20:54;;;;;;;3.07;2.30;;;;;;;2.11;98.02;98982.34;5003569;28;20235;-70
2021/01/23 02:23:24;;;;;;;2.50;1.87;;;;;;;2.10;97.75;98967.78;5005697;28;20204;-70
2021/01/23 02:25:59;;;;;;;4.40;2.77;;;;;;;2.08;97.96;98964.38;4999899;28;20361;-70
2021/01/23 02:28:54;;;;;;;4.03;2.27;;;;;;;2.06;97.84;98968.72;4990944;28;20192;-70
2021/01/23 02:31:24;;;;;;;4.07;2.43;;;;;;;2.05;98.09;98967.00;5004135;28;20201;-70
2021/01/23 02:33:53;;;;;;;4.23;2.63;;;;;;;2.04;97.84;98966.16;4995853;28;20208;-71
2021/01/23 02:36:22;;;;;;;3.83;2.30;;;;;;;2.02;97.99;98956.75;5004012;28;20200;-71
2021/01/23 02:38:49;;;;;;;3.90;2.20;;;;;;;2.01;97.89;98957.66;5002670;28;20220;-71
2021/01/23 02:41:16;;;;;;;3.27;2.33;;;;;;;2.01;97.74;98960.22;5000686;28;20224;-70
2021/01/23 02:43:43;;;;;;;3.53;1.93;;;;;;;2.03;97.87;98963.63;5004520;28;20563;-71
2021/01/23 02:46:10;;;;;;;3.53;2.50;;;;;;;2.02;97.74;98960.22;5005188;28;20227;-70
2021/01/23 02:48:37;;;;;;;3.47;2.50;;;;;;;2.02;97.62;98961.91;5001819;28;20657;-70
2021/01/23 02:51:06;;;;;;;3.60;2.80;;;;;;;2.02;97.76;98962.78;4997278;28;20220;-70
2021/01/23 02:53:34;;;;;;;4.50;2.67;;;;;;;2.01;97.78;98966.22;5019567;28;20235;-70
2021/01/23 02:56:08;;;;;;;5.17;3.73;;;;;;;2.03;97.65;98968.75;5001661;28;20230;-70
2021/01/23 02:58:35;;;;;;;4.17;2.80;;;;;;;2.04;97.79;98966.16;5000002;28;20224;-70
2021/01/23 03:01:03;;;;;;;3.73;2.20;;;;;;;2.06;97.64;98961.00;5004559;28;20570;-70
2021/01/23 03:03:31;;;;;;;3.37;2.27;;;;;;;2.08;97.42;98957.50;4999999;28;20208;-70
2021/01/23 03:06:01;;;;;;;2.70;2.03;;;;;;;2.10;97.25;98946.34;5001626;28;20202;-71
2021/01/23 03:08:28;;;;;;;3.83;2.40;;;;;;;2.11;97.33;98940.31;5001910;28;20204;-71
2021/01/23 03:10:54;;;;;;;3.77;2.00;;;;;;;2.11;97.33;98924.91;5004519;28;20224;-71
2021/01/23 03:13:19;;;;;;;3.43;2.47;;;;;;;2.10;97.24;98921.47;4998876;28;20734;-70
2021/01/23 03:15:45;;;;;;;4.20;2.47;;;;;;;2.12;97.49;98929.19;5006033;28;20228;-71
2021/01/23 03:18:11;;;;;;;4.67;2.53;;;;;;;2.11;97.50;98930.03;5002202;28;20251;-70
2021/01/23 03:20:37;;;;;;;6.20;2.83;;;;;;;2.11;97.56;98930.03;5002603;28;20282;-71
2021/01/23 03:23:05;;;;;;;6.17;3.33;;;;;;;2.11;97.40;98925.75;4999964;28;20201;-70
2021/01/23 03:25:31;;;;;;;7.53;3.60;;;;;;;2.12;97.42;98937.72;5001142;28;20208;-71
2021/01/23 03:27:58;;;;;;;5.80;3.10;;;;;;;2.15;97.19;98945.41;5004224;28;20192;-70
2021/01/23 03:30:25;;;;;;;4.87;3.10;;;;;;;2.17;97.26;98943.63;4998255;28;20217;-70
2021/01/23 03:32:52;;;;;;;6.50;3.43;;;;;;;2.17;97.00;98942.78;5002960;28;20204;-70
2021/01/23 03:35:18;;;;;;;6.40;3.30;;;;;;;2.20;96.83;98935.00;5002457;28;20200;-70
2021/01/23 03:37:45;;;;;;;5.40;3.03;;;;;;;2.18;96.73;98932.47;5000187;28;20213;-70
2021/01/23 03:40:13;;;;;;;5.17;3.33;;;;;;;2.18;96.86;98927.34;5000106;28;20232;-70
2021/01/23 03:42:39;;;;;;;7.17;3.10;;;;;;;2.19;96.53;98928.19;5002210;28;20235;-71
2021/01/23 03:45:07;;;;;;;7.20;3.37;;;;;;;2.18;96.86;98927.34;5003400;28;20200;-70
2021/01/23 03:47:33;;;;;;;6.63;3.47;;;;;;;2.18;96.29;98921.31;5001108;28;20235;-70
2021/01/23 03:49:59;;;;;;;7.80;3.10;;;;;;;2.19;96.16;98911.00;5001410;28;20219;-70
2021/01/23 03:52:24;;;;;;;6.90;3.37;;;;;;;2.19;96.30;98902.47;5005520;28;20205;-70
2021/01/23 03:54:50;;;;;;;6.93;3.20;;;;;;;2.20;95.86;98904.13;5003154;28;20200;-71
2021/01/23 03:57:17;;;;;;;7.07;3.27;;;;;;;2.20;95.91;98909.28;4999646;28;20236;-71
2021/01/23 03:59:43;;;;;;;5.57;3.27;;;;;;;2.20;95.89;98905.00;5003765;28;20231;-70
2021/01/23 04:02:09;;;;;;;5.60;3.77;;;;;;;2.22;95.22;98899.84;4994690;28;20205;-70
2021/01/23 04:04:35;;;;;;;4.37;2.77;;;;;;;2.24;95.26;98898.09;5003692;28;20235;-70
2021/01/23 04:07:01;;;;;;;6.07;3.63;;;;;;;2.25;94.94;98889.47;5003143;28;20200;-70
2021/01/23 04:09:27;;;;;;;4.97;2.93;;;;;;;2.25;94.74;98889.47;5004263;28;20566;-71
2021/01/23 04:11:52;;;;;;;7.27;3.60;;;;;;;2.26;94.73;98875.75;5004873;28;20876;-70
2021/01/23 04:14:19;;;;;;;7.33;3.33;;;;;;;2.26;94.49;98868.88;5005609;28;20561;-70
2021/01/23 04:16:46;;;;;;;5.47;3.60;;;;;;;2.29;94.53;98870.56;5005304;28;20200;-70
2021/01/23 04:19:12;;;;;;;6.70;3.93;;;;;;;2.30;94.54;98861.94;5003852;28;20560;-70
2021/01/23 04:21:38;;;;;;;5.20;3.03;;;;;;;2.32;94.37;98856.75;5009449;28;20204;-71
2021/01/23 04:24:05;;;;;;;6.27;2.87;;;;;;;2.34;93.98;98862.72;5002413;28;20196;-71
2021/01/23 04:26:31;;;;;;;5.20;3.10;;;;;;;2.37;93.89;98860.94;5007545;28;20280;-70
2021/01/23 04:28:56;;;;;;;5.20;3.00;;;;;;;2.40;93.34;98858.31;5008702;28;20209;-70
2021/01/23 04:31:23;;;;;;;4.70;3.10;;;;;;;2.42;92.99;98861.69;5006682;28;20208;-70
2021/01/23 04:33:49;;;;;;;6.57;3.13;;;;;;;2.41;93.02;98849.72;5005796;28;20205;-70
2021/01/23 04:36:15;;;;;;;4.90;3.50;;;;;;;2.44;92.75;98851.34;5005751;28;20699;-70
2021/01/23 04:38:41;;;;;;;5.57;3.23;;;;;;;2.50;92.46;98856.38;5004364;28;20267;-70
2021/01/23 04:41:06;;;;;;;5.57;2.77;;;;;;;2.51;92.14;98846.94;5003278;28;20232;-70
2021/01/23 04:43:32;;;;;;;81.27;36.97;;;;;;;2.53;91.50;98840.03;5006027;28;20589;-70
2021/01/23 04:45:58;;;;;;;9.40;4.17;;;;;;;2.54;91.38;98824.56;5009036;28;20193;-71
2021/01/23 04:48:26;;;;;;;6.07;3.57;;;;;;;2.60;90.46;98823.56;5008428;28;20200;-71
2021/01/23 04:50:52;;;;;;;6.87;3.40;;;;;;;2.61;90.59;98825.28;5005194;28;20224;-70
2021/01/23 04:53:18;;;;;;;4.70;3.43;;;;;;;2.65;90.21;98808.88;5005240;28;20219;-71
2021/01/23 04:55:44;;;;;;;8.00;3.67;;;;;;;2.68;90.11;98813.13;5005158;28;20665;-70
2021/01/23 04:58:10;;;;;;;4.03;3.17;;;;;;;2.65;90.59;98819.16;5002311;28;20223;-70
2021/01/23 05:00:36;;;;;;;5.33;3.33;;;;;;;2.63;90.82;98819.19;5004270;28;20216;-71
2021/01/23 05:03:03;;;;;;;5.50;3.13;;;;;;;2.62;91.06;98806.38;5009136;28;20212;-70
2021/01/23 05:05:30;;;;;;;6.40;3.30;;;;;;;2.62;90.86;98801.22;5004666;28;20196;-71
2021/01/23 05:08:06;;;;;;;5.20;3.30;;;;;;;2.61;90.26;98796.97;5001597;28;20678;-71
2021/01/23 05:10:32;;;;;;;5.77;2.83;;;;;;;2.58;90.30;98787.59;5007074;28;20239;-71
2021/01/23 05:12:58;;;;;;;5.67;3.30;;;;;;;2.55;90.70;98782.53;5005561;28;20198;-70
2021/01/23 05:15:26;;;;;;;4.10;3.00;;;;;;;2.51;91.50;98792.91;5007128;28;20208;-71
2021/01/23 05:17:54;;;;;;;4.53;2.87;;;;;;;2.44;92.26;98808.47;5001895;28;20732;-71
2021/01/23 05:20:36;;;;;;;7.23;3.10;;;;;;;2.38;92.49;98812.94;5003281;28;20221;-71
2021/01/23 05:23:07;;;;;;;6.53;3.40;;;;;;;2.36;92.47;98832.69;5005141;28;20201;-71
2021/01/23 05:25:35;;;;;;;5.07;2.60;;;;;;;2.30;92.89;98832.81;5005468;28;20283;-70
2021/01/23 05:28:02;;;;;;;3.83;2.60;;;;;;;2.25;93.16;98838.91;5007689;28;20254;-70
2021/01/23 05:30:46;;;;;;;5.47;2.70;;;;;;;2.21;93.20;98836.41;5001294;28;20617;-70
2021/01/23 05:33:13;;;;;;;4.30;2.50;;;;;;;2.16;93.39;98835.66;5007209;28;20205;-70
2021/01/23 05:35:41;;;;;;;5.27;3.17;;;;;;;2.14;93.35;98842.56;5003938;28;20200;-71
2021/01/23 05:38:24;;;;;;;3.57;2.60;;;;;;;2.11;93.49;98833.22;5001770;28;20679;-70
2021/01/23 05:40:52;;;;;;;4.77;2.80;;;;;;;2.09;93.90;98829.78;5003084;28;20231;-71
2021/01/23 05:43:32;;;;;;;5.00;2.40;;;;;;;2.04;93.77;98821.31;5007432;28;20687;-70
2021/01/23 05:45:58;;;;;;;3.77;2.40;;;;;;;2.02;94.07;98823.09;5006528;28;20201;-71
2021/01/23 05:48:24;;;;;;;4.37;2.67;;;;;;;1.96;93.98;98821.50;5007277;28;20197;-70
2021/01/23 05:50:52;;;;;;;8.00;2.97;;;;;;;1.96;93.81;98820.66;5006985;28;20896;-71
2021/01/23 05:53:18;;;;;;;4.90;3.13;;;;;;;1.95;93.80;98811.22;5000790;28;20212;-71
2021/01/23 05:55:43;;;;;;;5.53;2.97;;;;;;;1.92;93.85;98809.59;5008686;28;20204;-71
2021/01/23 05:58:10;;;;;;;8.40;3.10;;;;;;;1.90;93.78;98801.06;5001731;28;20201;-71
2021/01/23 06:00:36;;;;;;;5.07;3.27;;;;;;;1.88;94.22;98808.81;5004249;28;20232;-70
2021/01/23 06:03:02;;;;;;;4.50;2.93;;;;;;;1.89;94.41;98815.63;5002626;28;20198;-70
2021/01/23 06:05:28;;;;;;;5.77;3.23;;;;;;;1.88;94.44;98815.63;5006970;28;20199;-70
2021/01/23 06:07:55;;;;;;;5.90;3.37;;;;;;;1.87;94.67;98806.25;4998206;28;20561;-70
2021/01/23 06:10:38;;;;;;;5.43;3.30;;;;;;;1.84;94.88;98798.59;5004689;28;20213;-71
2021/01/23 06:13:06;;;;;;;8.50;3.63;;;;;;;1.83;95.17;98800.34;5005888;28;20213;-71
2021/01/23 06:15:39;;;;;;;5.07;3.70;;;;;;;1.82;95.43;98801.19;4999712;28;20208;-70
2021/01/23 06:18:07;;;;;;;9.33;3.57;;;;;;;1.80;95.62;98796.97;5005863;28;20208;-70
2021/01/23 06:20:54;;;;;;;6.47;3.50;;;;;;;1.81;95.74;98793.50;5003396;28;20291;-70
2021/01/23 06:23:21;;;;;;;6.63;3.13;;;;;;;1.80;96.03;98784.13;5005526;28;20200;-71
2021/01/23 06:26:01;;;;;;;4.77;3.23;;;;;;;1.79;96.54;98788.41;4998402;28;20193;-71
2021/01/23 06:28:48;;;;;;;8.77;3.87;;;;;;;1.77;97.10;98771.34;5007551;28;20894;-70
2021/01/23 06:31:29;;;;;;;6.87;3.37;;;;;;;1.74;97.36;98764.50;5006312;28;20254;-71
2021/01/23 06:33:55;;;;;;;5.87;3.60;;;;;;;1.71;97.63;98754.31;5001232;28;20210;-71
2021/01/23 06:36:22;;;;;;;8.23;4.40;;;;;;;1.69;98.09;98750.94;5005640;28;20577;-71
2021/01/23 06:39:04;;;;;;;8.17;3.70;;;;;;;1.66;98.75;98749.25;5005371;28;20212;-71
2021/01/23 06:41:32;;;;;;;9.97;4.17;;;;;;;1.64;98.55;98753.59;5001285;28;20228;-71
2021/01/23 06:44:18;;;;;;;6.93;3.73;;;;;;;1.62;98.59;98745.06;5002109;28;20200;-71
2021/01/23 06:46:57;;;;;;;7.13;4.20;;;;;;;1.61;98.77;98748.50;5002225;28;20224;-70
2021/01/23 06:49:26;;;;;;;6.07;3.80;;;;;;;1.61;99.23;98737.38;5005173;28;20216;-71
2021/01/23 06:52:04;;;;;;;7.47;4.13;;;;;;;1.58;99.24;98740.84;4999759;28;20259;-71
2021/01/23 06:54:31;;;;;;;7.87;4.33;;;;;;;1.56;99.50;98744.34;5003387;28;20880;-71
2021/01/23 06:56:58;;;;;;;7.30;4.20;;;;;;;1.53;99.69;98745.25;5001465;28;20205;-71
2021/01/23 06:59:25;;;;;;;8.27;4.13;;;;;;;1.50;99.89;98741.00;5007699;28;20255;-71
2021/01/23 07:01:58;;;;;;;12.30;5.60;;;;;;;1.49;100.00;98746.16;5009022;28;20234;-71
2021/01/23 07:04:25;;;;;;;8.70;4.97;;;;;;;1.47;100.00;98737.66;5009868;28;20212;-71
2021/01/23 07:06:52;;;;;;;8.40;4.43;;;;;;;1.45;100.00;98736.84;5004604;28;20204;-70
2021/01/23 07:09:18;;;;;;;10.97;5.17;;;;;;;1.43;100.00;98744.56;5008351;28;20221;-71
2021/01/23 07:11:45;;;;;;;13.70;7.37;;;;;;;1.43;100.00;98741.16;5005951;28;20278;-71
2021/01/23 07:14:11;;;;;;;16.30;7.80;;;;;;;1.43;100.00;98734.31;5006994;28;20201;-71
2021/01/23 07:16:38;;;;;;;19.33;8.30;;;;;;;1.41;100.00;98728.34;5004228;28;20240;-71
2021/01/23 07:19:06;;;;;;;12.03;6.23;;;;;;;1.42;99.77;98726.63;5007540;28;20586;-71
2021/01/23 07:21:34;;;;;;;13.13;6.93;;;;;;;1.42;99.71;98734.31;5006802;28;20234;-71
2021/01/23 07:24:00;;;;;;;12.77;6.83;;;;;;;1.39;99.29;98740.38;5002201;28;20208;-71
2021/01/23 07:26:26;;;;;;;13.90;6.77;;;;;;;1.41;99.45;98741.19;4998265;28;20200;-71
2021/01/23 07:28:54;;;;;;;13.93;6.43;;;;;;;1.40;99.41;98734.34;5003465;28;20201;-70
2021/01/23 07:31:22;;;;;;;15.30;7.43;;;;;;;1.39;99.56;98729.25;4993604;28;20193;-72
2021/01/23 07:33:48;;;;;;;9.30;5.30;;;;;;;1.36;99.36;98734.47;5004261;28;20197;-72
2021/01/23 07:36:37;;;;;;;9.73;5.63;;;;;;;1.36;99.68;98732.72;5002502;28;20283;-70
2021/01/23 07:39:06;;;;;;;9.23;5.57;;;;;;;1.33;99.98;98725.91;5001963;28;20253;-71
2021/01/23 07:41:34;;;;;;;9.67;5.37;;;;;;;1.33;100.00;98723.34;5001297;28;20200;-71
2021/01/23 07:44:02;;;;;;;10.97;6.20;;;;;;;1.33;100.00;98723.34;5006112;28;20268;-71
2021/01/23 07:46:36;;;;;;;8.73;5.47;;;;;;;1.30;99.92;98723.44;5009806;28;20727;-71
2021/01/23 07:49:03;;;;;;;8.57;5.27;;;;;;;1.32;100.00;98723.41;5029484;28;20206;-71
2021/01/23 07:51:30;;;;;;;11.17;6.27;;;;;;;1.31;100.00;98717.41;5010897;28;20205;-71
2021/01/23 07:54:20;;;;;;;9.13;5.20;;;;;;;1.32;100.00;98723.41;5006282;28;20330;-72
2021/01/23 07:56:54;;;;;;;10.10;5.33;;;;;;;1.30;100.00;98728.56;5009843;28;20200;-71
2021/01/23 07:59:22;;;;;;;9.17;5.17;;;;;;;1.30;100.00;98718.28;5013536;28;20272;-72
2021/01/23 08:01:48;;;;;;;10.57;5.83;;;;;;;1.30;100.00;98713.16;5011712;28;20230;-71
2021/01/23 08:04:30;;;;;;;10.03;5.50;;;;;;;1.30;100.00;98712.28;5007412;28;20204;-72
2021/01/23 08:07:22;;;;;;;9.03;5.60;;;;;;;1.30;100.00;98713.16;5010272;28;20210;-71
2021/01/23 08:10:04;;;;;;;9.43;5.50;;;;;;;1.30;100.00;98723.44;5011373;28;20626;-72
2021/01/23 08:12:30;;;;;;;10.90;6.30;;;;;;;1.30;100.00;98722.56;5008603;28;20203;-71
2021/01/23 08:14:57;;;;;;;11.07;6.00;;;;;;;1.26;100.00;98721.78;5010002;28;20199;-72
2021/01/23 08:17:36;;;;;;;10.83;6.30;;;;;;;1.22;100.00;98709.88;5011082;28;20222;-73
2021/01/23 08:20:02;;;;;;;11.10;6.50;;;;;;;1.20;100.00;98726.19;5009714;28;20627;-71
2021/01/23 08:22:28;;;;;;;9.57;6.27;;;;;;;1.15;100.00;98722.88;5008393;28;20200;-73
2021/01/23 08:24:54;;;;;;;11.67;7.17;;;;;;;1.09;100.00;98713.53;5004890;28;20797;-72
2021/01/23 08:27:22;;;;;;;13.87;6.77;;;;;;;1.04;100.00;98730.72;5008412;28;20314;-73
2021/01/23 08:29:49;;;;;;;13.83;7.43;;;;;;;0.97;100.00;98724.88;5010594;28;20224;-72
2021/01/23 08:32:16;;;;;;;13.93;7.13;;;;;;;0.89;100.00;98734.44;5011377;28;20220;-73
2021/01/23 08:34:44;;;;;;;9.33;6.10;;;;;;;0.82;100.00;98725.97;5008525;28;20242;-72
2021/01/23 08:37:10;;;;;;;10.17;5.70;;;;;;;0.79;100.00;98730.31;5007391;28;20653;-73
2021/01/23 08:39:44;;;;;;;12.93;7.20;;;;;;;0.70;100.00;98719.34;5007241;28;20231;-73
2021/01/23 08:42:10;;;;;;;11.87;6.90;;;;;;;0.66;100.00;98727.13;5009013;28;20219;-73
2021/01/23 08:44:36;;;;;;;15.00;8.13;;;;;;;0.59;100.00;98720.38;5006704;28;20215;-74
2021/01/23 08:47:03;;;;;;;13.40;6.73;;;;;;;0.50;100.00;98717.09;5010413;28;20209;-73
2021/01/23 08:49:30;;;;;;;12.37;7.33;;;;;;;0.38;100.00;98724.97;5011597;28;20724;-74
2021/01/23 08:51:56;;;;;;;11.90;6.80;;;;;;;0.31;100.00;98713.13;5008599;28;20201;-74
2021/01/23 08:54:21;;;;;;;11.47;7.27;;;;;;;0.26;100.00;98714.91;5010405;28;20294;-73
2021/01/23 08:56:47;;;;;;;12.17;6.63;;;;;;;0.21;100.00;98716.69;5002279;28;20215;-74
2021/01/23 08:59:13;;;;;;;9.83;5.97;;;;;;;0.14;100.00;98718.47;5004158;28;20269;-73
2021/01/23 09:01:39;;;;;;;8.97;6.10;;;;;;;0.07;100.00;98707.50;5007334;28;20668;-74
2021/01/23 09:04:05;;;;;;;10.70;6.40;;;;;;;0.00;100.00;98703.31;5008779;28;20565;-74
2021/01/23 09:06:32;;;;;;;12.13;5.83;;;;;;;-0.03;100.00;98703.38;5006024;28;20265;-74
2021/01/23 09:08:58;;;;;;;12.73;5.00;;;;;;;-0.12;100.00;98711.16;5000805;28;20210;-74
2021/01/23 09:11:24;;;;;;;7.37;5.10;;;;;;;-0.14;100.00;98700.94;5002351;28;20205;-74
2021/01/23 09:13:49;;;;;;;7.23;5.20;;;;;;;-0.13;100.00;98706.91;5006320;28;20211;-74
2021/01/23 09:16:15;;;;;;;9.80;5.10;;;;;;;-0.14;100.00;98713.75;5006427;28;21031;-74
2021/01/23 09:18:41;;;;;;;6.47;4.13;;;;;;;-0.16;100.00;98715.47;5005131;28;20303;-74
2021/01/23 09:21:07;;;;;;;7.27;4.87;;;;;;;-0.16;100.00;98714.63;5010390;28;20227;-74
2021/01/23 09:23:34;;;;;;;6.37;4.20;;;;;;;-0.15;100.00;98711.22;5007342;28;20204;-73
2021/01/23 09:26:02;;;;;;;8.10;4.60;;;;;;;-0.14;100.00;98708.63;5005658;28;20201;-74
2021/01/23 09:28:28;;;;;;;6.70;4.23;;;;;;;-0.10;100.00;98717.13;5004629;28;20704;-74
2021/01/23 09:30:54;;;;;;;6.50;4.77;;;;;;;-0.08;100.00;98712.81;5006028;28;20776;-74
2021/01/23 09:33:20;;;;;;;7.10;4.00;;;;;;;-0.05;100.00;98720.47;5005093;28;20219;-74
2021/01/23 09:35:46;;;;;;;7.70;4.70;;;;;;;-0.02;100.00;98720.41;5006017;28;20235;-74
2021/01/23 09:38:11;;;;;;;9.07;4.83;;;;;;;0.00;100.00;98713.56;5004270;28;20708;-74
2021/01/23 09:40:38;;;;;;;8.20;5.03;;;;;;;0.04;100.00;98720.34;5004469;28;20281;-74
2021/01/23 09:43:04;;;;;;;12.23;6.77;;;;;;;0.07;100.00;98729.69;5019809;28;20205;-74
2021/01/23 09:45:30;;;;;;;8.43;5.17;;;;;;;0.09;100.00;98721.13;5006034;28;20659;-74
2021/01/23 09:47:56;;;;;;;10.07;4.73;;;;;;;0.11;100.00;98726.25;5001848;28;20214;-73
2021/01/23 09:50:22;;;;;;;8.00;4.83;;;;;;;0.12;100.00;98728.78;5018470;28;20220;-74
2021/01/23 09:52:48;;;;;;;11.20;4.97;;;;;;;0.16;100.00;98730.44;5004792;28;20201;-74
2021/01/23 09:55:14;;;;;;;7.57;4.40;;;;;;;0.19;100.00;98724.38;5006713;28;20205;-74
2021/01/23 09:57:41;;;;;;;8.83;4.67;;;;;;;0.20;100.00;98726.09;5004737;28;20197;-74
2021/01/23 10:00:08;;;;;;;7.93;5.30;;;;;;;0.21;100.00;98729.50;5002776;28;20305;-74
2021/01/23 10:02:38;;;;;;;8.13;5.27;;;;;;;0.22;100.00;98732.03;5005078;28;20221;-74
2021/01/23 10:05:05;;;;;;;8.07;5.00;;;;;;;0.23;100.00;98732.88;5000316;28;20197;-74
2021/01/23 10:07:31;;;;;;;13.80;6.50;;;;;;;0.24;100.00;98727.75;5019598;28;20214;-74
2021/01/23 10:09:57;;;;;;;6.17;4.73;;;;;;;0.27;100.00;98727.69;5004401;28;20729;-74
2021/01/23 10:12:23;;;;;;;8.13;5.03;;;;;;;0.26;100.00;98733.69;5007523;28;20208;-74
2021/01/23 10:14:49;;;;;;;7.27;4.93;;;;;;;0.27;100.00;98726.88;5006119;28;20209;-74
2021/01/23 10:17:15;;;;;;;7.60;4.90;;;;;;;0.27;100.00;98732.00;5004820;28;20686;-74
2021/01/23 10:19:42;;;;;;;7.53;5.17;;;;;;;0.31;100.00;98733.63;5005725;28;20295;-74
2021/01/23 10:22:07;;;;;;;7.07;4.63;;;;;;;0.31;100.00;98742.16;5002956;28;20201;-73
2021/01/23 10:24:33;;;;;;;6.27;4.13;;;;;;;0.31;100.00;98741.31;5005336;28;20955;-73
2021/01/23 10:26:59;;;;;;;8.33;4.30;;;;;;;0.34;100.00;98738.72;5002529;28;20225;-74
2021/01/23 10:29:25;;;;;;;6.90;5.07;;;;;;;0.33;100.00;98742.97;5001401;28;20254;-74
2021/01/23 10:31:52;;;;;;;5.20;3.47;;;;;;;0.35;100.00;98748.94;5000948;28;20768;-74
2021/01/23 10:34:18;;;;;;;6.90;4.40;;;;;;;0.35;100.00;98750.66;5004592;28;20562;-74
2021/01/23 10:36:43;;;;;;;5.60;3.73;;;;;;;0.34;100.00;98751.53;5004559;28;20204;-74
2021/01/23 10:39:09;;;;;;;6.33;4.10;;;;;;;0.30;100.00;98749.88;5005579;28;20226;-74
2021/01/23 10:41:35;;;;;;;7.77;3.60;;;;;;;0.32;100.00;98751.56;5004357;28;20219;-73
2021/01/23 10:44:01;;;;;;;8.03;4.30;;;;;;;0.27;100.00;98758.47;4997243;28;20250;-74
2021/01/23 10:46:27;;;;;;;6.47;4.03;;;;;;;0.24;100.00;98757.66;5007803;28;20204;-74
2021/01/23 10:48:54;;;;;;;6.03;3.47;;;;;;;0.21;100.00;98755.13;5005424;28;20207;-74
2021/01/23 10:51:20;;;;;;;5.80;4.10;;;;;;;0.21;100.00;98765.38;5006258;28;20256;-74
2021/01/23 10:53:46;;;;;;;4.97;3.80;;;;;;;0.19;100.00;98775.66;5004177;28;20208;-74
2021/01/23 10:56:12;;;;;;;5.07;3.37;;;;;;;0.15;100.00;98784.25;4999981;28;20216;-74
2021/01/23 10:58:38;;;;;;;5.90;4.23;;;;;;;0.16;100.00;98786.81;5005699;28;20328;-74
2021/01/23 11:01:04;;;;;;;4.47;3.50;;;;;;;0.09;100.00;98790.31;5007600;28;20230;-73
2021/01/23 11:03:30;;;;;;;5.27;3.37;;;;;;;0.06;100.00;98795.47;5007019;28;20206;-74
2021/01/23 11:05:57;;;;;;;8.97;5.67;;;;;;;-0.02;100.00;98803.28;5004642;28;20206;-74
2021/01/23 11:08:23;;;;;;;4.77;3.43;;;;;;;-0.08;100.00;98799.94;5001190;28;20248;-73
2021/01/23 11:10:49;;;;;;;5.93;4.47;;;;;;;-0.10;100.00;98806.78;5007624;28;20220;-74
2021/01/23 11:13:14;;;;;;;7.43;5.10;;;;;;;-0.09;100.00;98793.09;5006737;28;20259;-74
2021/01/23 11:15:40;;;;;;;6.30;3.30;;;;;;;-0.18;100.00;98803.47;5006112;28;20254;-74
2021/01/23 11:18:06;;;;;;;5.43;2.00;;;;;;;-0.22;100.00;98806.06;5002597;28;20221;-74
2021/01/23 11:20:32;;;;;;;7.33;4.20;;;;;;;-0.25;100.00;98821.44;5007167;28;20229;-74
2021/01/23 11:22:59;;;;;;;4.53;2.97;;;;;;;-0.28;100.00;98824.06;5009884;28;20209;-74
2021/01/23 11:25:27;;;;;;;5.67;3.27;;;;;;;-0.32;100.00;98824.94;5001800;28;20198;-74
2021/01/23 11:27:53;;;;;;;3.10;2.47;;;;;;;-0.35;100.00;98825.00;5005517;28;20205;-74
2021/01/23 11:30:20;;;;;;;2.47;2.10;;;;;;;-0.40;100.00;98824.19;5005718;28;20716;-74
2021/01/23 11:32:46;;;;;;;2.57;2.00;;;;;;;-0.45;100.00;98825.97;4998639;28;20260;-74
2021/01/23 11:35:12;;;;;;;3.10;2.10;;;;;;;-0.51;100.00;98829.44;5002354;28;20220;-74
2021/01/23 11:37:38;;;;;;;2.23;2.00;;;;;;;-0.52;100.00;98826.88;5001948;28;20857;-74
2021/01/23 11:40:06;;;;;;;2.40;2.10;;;;;;;-0.55;100.00;98827.75;5005965;28;20226;-74